NCAR-RAP Real-Time Weather Data

Output produced by METARs form (24 July 2017  08:54 UTC)
found at http://weather.rap.ucar.edu/surface/
 
Conditions at: KFPR observed 24 July 2017  07:53 UTC
Temperature: 25.0°C (77°F)
Dewpoint: 24.4°C (76°F) [RH = 96%]
Pressure (altimeter): 30.02 inches Hg (1016.7 mb)
[Sea-level pressure: 1016.6 mb]
Winds: calm
Visibility: 10 or more miles (16+ km)
Ceiling: at least 12,000 feet AGL
Clouds: sky clear below 12,000 feet AGL
Present Weather: automated observation with no human augmentation;
there may or may not be significant weather present at this time
KFPR 240753Z AUTO 00000KT 10SM CLR 25/24 A3002 RMK AO2 SLP166 T02500244

Conditions at: KFPR observed 24 July 2017  06:53 UTC
Temperature: 24.4°C (76°F)
Dewpoint: 23.9°C (75°F) [RH = 97%]
Pressure (altimeter): 30.02 inches Hg (1016.7 mb)
[Sea-level pressure: 1016.6 mb]
Winds: calm
Visibility: 10 or more miles (16+ km)
Ceiling: at least 12,000 feet AGL
Clouds: sky clear below 12,000 feet AGL
Present Weather: automated observation with no human augmentation;
there may or may not be significant weather present at this time
KFPR 240653Z AUTO 00000KT 10SM CLR 24/24 A3002 RMK AO2 SLP166 T02440239

Conditions at: KFPR observed 24 July 2017  05:53 UTC
Temperature: 24.4°C (76°F)
Dewpoint: 23.9°C (75°F) [RH = 97%]
Pressure (altimeter): 30.03 inches Hg (1017.0 mb)
[Sea-level pressure: 1016.9 mb]
Winds: from the NW (310 degrees) at 3 MPH (3 knots; 1.6 m/s)
Visibility: 10 or more miles (16+ km)
Ceiling: at least 12,000 feet AGL
Clouds: sky clear below 12,000 feet AGL
Present Weather: automated observation with no human augmentation;
there may or may not be significant weather present at this time
KFPR 240553Z AUTO 31003KT 10SM CLR 24/24 A3003 RMK AO2 SLP169 T02440239 10283 20244 58000

Conditions at: KFPR observed 24 July 2017  04:53 UTC
Temperature: 25.6°C (78°F)
Dewpoint: 24.4°C (76°F) [RH = 93%]
Pressure (altimeter): 30.04 inches Hg (1017.4 mb)
[Sea-level pressure: 1017.1 mb]
Winds: calm
Visibility: 10 or more miles (16+ km)
Ceiling: at least 12,000 feet AGL
Clouds: sky clear below 12,000 feet AGL
Present Weather: automated observation with no human augmentation;
there may or may not be significant weather present at this time
KFPR 240453Z AUTO 00000KT 10SM CLR 26/24 A3004 RMK AO2 SLP171 T02560244 403330228

Conditions at: KFPR observed 24 July 2017  03:53 UTC
Temperature: 26.1°C (79°F)
Dewpoint: 25.0°C (77°F) [RH = 94%]
Pressure (altimeter): 30.05 inches Hg (1017.7 mb)
[Sea-level pressure: 1017.4 mb]
Winds: calm
Visibility: 10 or more miles (16+ km)
Ceiling: at least 12,000 feet AGL
Clouds: sky clear below 12,000 feet AGL
Present Weather: automated observation with no human augmentation;
there may or may not be significant weather present at this time
KFPR 240353Z AUTO 00000KT 10SM CLR 26/25 A3005 RMK AO2 SLP174 T02610250

Conditions at: KFPR observed 24 July 2017  02:53 UTC
Temperature: 26.7°C (80°F)
Dewpoint: 25.0°C (77°F) [RH = 90%]
Pressure (altimeter): 30.03 inches Hg (1017.0 mb)
[Sea-level pressure: 1016.9 mb]
Winds: from the S (170 degrees) at 5 MPH (4 knots; 2.1 m/s)
Visibility: 10 or more miles (16+ km)
Ceiling: at least 12,000 feet AGL
Clouds: sky clear below 12,000 feet AGL
Present Weather: automated observation with no human augmentation;
there may or may not be significant weather present at this time
KFPR 240253Z AUTO 17004KT 10SM CLR 27/25 A3003 RMK AO2 SLP169 T02670250 53009

Conditions at: KFPR observed 24 July 2017  01:53 UTC
Temperature: 26.7°C (80°F)
Dewpoint: 25.0°C (77°F) [RH = 90%]
Pressure (altimeter): 30.02 inches Hg (1016.7 mb)
[Sea-level pressure: 1016.3 mb]
Winds: from the S (170 degrees) at 6 MPH (5 knots; 2.6 m/s)
Visibility: 10 or more miles (16+ km)
Ceiling: at least 12,000 feet AGL
Clouds: sky clear below 12,000 feet AGL
Present Weather: automated observation with no human augmentation;
there may or may not be significant weather present at this time
KFPR 240153Z AUTO 17005KT 10SM CLR 27/25 A3002 RMK AO2 SLP163 T02670250

Conditions at: KFPR observed 24 July 2017  00:53 UTC
Temperature: 27.2°C (81°F)
Dewpoint: 25.0°C (77°F) [RH = 88%]
Pressure (altimeter): 29.99 inches Hg (1015.7 mb)
[Sea-level pressure: 1015.5 mb]
Winds: from the S (170 degrees) at 5 MPH (4 knots; 2.1 m/s)
Visibility: 10 or more miles (16+ km)
Ceiling: at least 12,000 feet AGL
Clouds: sky clear below 12,000 feet AGL
Present Weather: automated observation with no human augmentation;
there may or may not be significant weather present at this time
KFPR 240053Z AUTO 17004KT 10SM CLR 27/25 A2999 RMK AO2 SLP155 T02720250

Conditions at: KFPR observed 23 July 2017  23:53 UTC
Temperature: 28.3°C (83°F)
Dewpoint: 25.0°C (77°F) [RH = 82%]
Pressure (altimeter): 30.00 inches Hg (1016.0 mb)
[Sea-level pressure: 1016.0 mb]
Winds: from the SSE (150 degrees) at 3 MPH (3 knots; 1.6 m/s)
Visibility: 10 or more miles (16+ km)
Ceiling: at least 12,000 feet AGL
Clouds: sky clear below 12,000 feet AGL
Present Weather: no significant weather observed at this time
KFPR 232353Z 15003KT 10SM CLR 28/25 A3000 RMK AO2 SLP160 60038 T02830250 10322 20250 55011

Conditions at: KFPR observed 23 July 2017  22:53 UTC
Temperature: 28.3°C (83°F)
Dewpoint: 24.4°C (76°F) [RH = 79%]
Pressure (altimeter): 30.00 inches Hg (1016.0 mb)
[Sea-level pressure: 1015.9 mb]
Winds: calm
Visibility: 10 or more miles (16+ km)
Ceiling: at least 12,000 feet AGL
Clouds: few clouds at 4000 feet AGL
Present Weather: no significant weather observed at this time
KFPR 232253Z 00000KT 10SM FEW040 28/24 A3000 RMK AO2 SLP159 T02830244

Conditions at: KFPR observed 23 July 2017  21:53 UTC
Temperature: 28.3°C (83°F)
Dewpoint: 24.4°C (76°F) [RH = 79%]
Pressure (altimeter): 30.01 inches Hg (1016.3 mb)
[Sea-level pressure: 1016.3 mb]
Winds: from the SE (130 degrees) at 7 MPH (6 knots; 3.1 m/s)
Visibility: 10 or more miles (16+ km)
Ceiling: at least 12,000 feet AGL
Clouds: sky clear below 12,000 feet AGL
Present Weather: no significant weather observed at this time
KFPR 232153Z 13006KT 10SM CLR 28/24 A3001 RMK AO2 SLP163 T02830244

Conditions at: KFPR observed 23 July 2017  20:53 UTC
Temperature: 28.9°C (84°F)
Dewpoint: 25.0°C (77°F) [RH = 80%]
Pressure (altimeter): 30.04 inches Hg (1017.4 mb)
[Sea-level pressure: 1017.0 mb]
Winds: from the SE (130 degrees) at 7 MPH (6 knots; 3.1 m/s)
Visibility: 10 or more miles (16+ km)
Ceiling: at least 12,000 feet AGL
Clouds: few clouds at 2500 feet AGL
Present Weather: no significant weather observed at this time
KFPR 232053Z 13006KT 10SM FEW025 29/25 A3004 RMK AO2 LTG DSNT S SLP170 60038 T02890250 55005

Conditions at: KFPR observed 23 July 2017  19:53 UTC
Temperature: 26.1°C (79°F)
Dewpoint: 23.9°C (75°F) [RH = 88%]
Pressure (altimeter): 30.04 inches Hg (1017.4 mb)
[Sea-level pressure: 1017.0 mb]
Winds: calm
Visibility: 7 miles (11 km)
Ceiling: at least 12,000 feet AGL
Clouds: few clouds at 3600 feet AGL
few clouds at 6000 feet AGL
Present Weather: no significant weather observed at this time
KFPR 231953Z 00000KT 7SM FEW036 FEW060 26/24 A3004 RMK AO2 PK WND 27032/1912 LTG DSNT N RAB12E45 TSB1856E49 SLP170 P0038 T02610239

Conditions at: KFPR observed 23 July 2017  19:02 UTC
Temperature: 30.0°C (86°F)
Dewpoint: 24.4°C (76°F) [RH = 72%]
Pressure (altimeter): 30.06 inches Hg (1018.0 mb)
Winds: from the SE (130 degrees) at 8 MPH (7 knots; 3.6 m/s)
Visibility: 10 or more miles (16+ km)
Ceiling: 5000 feet AGL
Clouds: scattered clouds at 2900 feet AGL
scattered clouds at 4300 feet AGL
broken clouds at 5000 feet AGL
Present Weather: TS  (thunderstorm)
KFPR 231902Z 13007KT 10SM TS SCT029 SCT043 BKN050 30/24 A3006 RMK AO2 LTG DSNT ALQDS TSB1856 T03000244

Conditions at: KFPR observed 23 July 2017  18:53 UTC
Temperature: 30.6°C (87°F)
Dewpoint: 23.9°C (75°F) [RH = 68%]
Pressure (altimeter): 30.04 inches Hg (1017.4 mb)
[Sea-level pressure: 1017.3 mb]
Winds: from the E (100 degrees) at 7 MPH (6 knots; 3.1 m/s)
Visibility: 10 or more miles (16+ km)
Ceiling: 2900 feet AGL
Clouds: broken clouds at 2900 feet AGL
broken clouds at 4100 feet AGL
Present Weather: VCTS  (thunderstorm in vicinity)
KFPR 231853Z 10006KT 10SM VCTS BKN029 BKN041 31/24 A3004 RMK AO2 LTG DSNT ALQDS TSB37E52 SLP173 T03060239

Conditions at: KFPR observed 23 July 2017  18:37 UTC
Temperature: 31.1°C (88°F)
Dewpoint: 23.9°C (75°F) [RH = 66%]
Pressure (altimeter): 30.06 inches Hg (1018.0 mb)
Winds: from the E (90 degrees) at 5 MPH (4 knots; 2.1 m/s)
Visibility: 10 or more miles (16+ km)
Ceiling: 2800 feet AGL
Clouds: broken clouds at 2800 feet AGL
broken clouds at 3900 feet AGL
Present Weather: TS  (thunderstorm)
KFPR 231837Z 09004KT 10SM TS BKN028 BKN039 31/24 A3006 RMK AO2 LTG DSNT SE-W TSB37 T03110239

Conditions at: KFPR observed 23 July 2017  18:22 UTC
Temperature: 32.2°C (90°F)
Dewpoint: 25.0°C (77°F) [RH = 66%]
Pressure (altimeter): 30.07 inches Hg (1018.4 mb)
Winds: variable direction winds at 5 MPH (4 knots; 2.1 m/s)
Visibility: 10 or more miles (16+ km)
Ceiling: at least 12,000 feet AGL
Clouds: few clouds at 3100 feet AGL
few clouds at 11000 feet AGL
Present Weather: VCTS  (thunderstorm in vicinity)
KFPR 231822Z VRB04KT 10SM VCTS FEW031 FEW110 32/25 A3007 RMK AO2 LTG DSNT ALQDS T03220250

Conditions at: KFPR observed 23 July 2017  18:04 UTC
Temperature: 31.7°C (89°F)
Dewpoint: 24.4°C (76°F) [RH = 65%]
Pressure (altimeter): 30.05 inches Hg (1017.7 mb)
Winds: variable direction winds at 5 MPH (4 knots; 2.1 m/s)
Visibility: 10 or more miles (16+ km)
Ceiling: at least 12,000 feet AGL
Clouds: sky clear below 12,000 feet AGL
Present Weather: no significant weather observed at this time
KFPR 231804Z VRB04KT 10SM CLR 32/24 A3005 RMK AO2 LTG DSNT ALQDS T03170244

Conditions at: KFPR observed 23 July 2017  17:53 UTC
Temperature: 31.1°C (88°F)
Dewpoint: 25.0°C (77°F) [RH = 70%]
Pressure (altimeter): 30.05 inches Hg (1017.7 mb)
[Sea-level pressure: 1017.5 mb]
Winds: from the E (100 degrees) at 7 MPH (6 knots; 3.1 m/s)
Visibility: 10 or more miles (16+ km)
Ceiling: at least 12,000 feet AGL
Clouds: sky clear below 12,000 feet AGL
Present Weather: VCTS  (thunderstorm in vicinity)
KFPR 231753Z 10006KT 10SM VCTS CLR 31/25 A3005 RMK AO2 LTG DSNT ALQDS RAB1655E26 TSE01B17E32 SLP175 P0000 60000 T03110250 10333 20250 56005

Conditions at: KFPR observed 23 July 2017  17:38 UTC
Temperature: 30.6°C (87°F)
Dewpoint: 24.4°C (76°F) [RH = 70%]
Pressure (altimeter): 30.06 inches Hg (1018.0 mb)
Winds: from the SE (130 degrees) at 12 MPH (10 knots; 5.2 m/s)
Visibility: 10 or more miles (16+ km)
Ceiling: at least 12,000 feet AGL
Clouds: few clouds at 2300 feet AGL
few clouds at 3900 feet AGL
Present Weather: VCTS  (thunderstorm in vicinity)
KFPR 231738Z 13010KT 10SM VCTS FEW023 FEW039 31/24 A3006 RMK AO2 LTG DSNT ALQDS RAB1655E26 TSE01B17E32 P0000 T03060244

Conditions at: KFPR observed 23 July 2017  17:23 UTC
Temperature: 30.6°C (87°F)
Dewpoint: 22.8°C (73°F) [RH = 63%]
Pressure (altimeter): 30.06 inches Hg (1018.0 mb)
Winds: from the SSW (200 degrees) at 5 MPH (4 knots; 2.1 m/s)
Visibility: 10 or more miles (16+ km)
Ceiling: 3700 feet AGL
Clouds: few clouds at 2400 feet AGL
broken clouds at 3700 feet AGL
broken clouds at 5000 feet AGL
Present Weather: -TSRA  (light rain associated with thunderstorm(s))
KFPR 231723Z 20004KT 10SM -TSRA FEW024 BKN037 BKN050 31/23 A3006 RMK AO2 LTG DSNT E-S RAB1655 TSE01B17 P0000 T03060228

Conditions at: KFPR observed 23 July 2017  17:07 UTC
Temperature: 29.4°C (85°F)
Dewpoint: 23.9°C (75°F) [RH = 72%]
Pressure (altimeter): 30.06 inches Hg (1018.0 mb)
Winds: from the W (270 degrees) at 6 MPH (5 knots; 2.6 m/s)
Visibility: 10 or more miles (16+ km)
Ceiling: 3800 feet AGL
Clouds: few clouds at 3100 feet AGL
broken clouds at 3800 feet AGL
broken clouds at 4900 feet AGL
Present Weather: VCTS -RA  (thunderstorm in vicinity, light rain)
KFPR 231707Z 27005KT 10SM VCTS -RA FEW031 BKN038 BKN049 29/24 A3006 RMK AO2 LTG DSNT SE AND W RAB1655 TSE01 P0000 T02940239

Conditions at: KFPR observed 23 July 2017  16:53 UTC
Temperature: 30.6°C (87°F)
Dewpoint: 24.4°C (76°F) [RH = 70%]
Pressure (altimeter): 30.06 inches Hg (1018.0 mb)
[Sea-level pressure: 1017.7 mb]
Winds: from the S (180 degrees) at 5 MPH (4 knots; 2.1 m/s)
Visibility: 10 or more miles (16+ km)
Ceiling: 3800 feet AGL
Clouds: few clouds at 3100 feet AGL
broken clouds at 3800 feet AGL
overcast cloud deck at 4700 feet AGL
Present Weather: TS  (thunderstorm)
KFPR 231653Z 18004KT 10SM TS FEW031 BKN038 OVC047 31/24 A3006 RMK AO2 LTG DSNT SE AND W TSB46 SLP177 T03060244

Conditions at: KFPR observed 23 July 2017  15:53 UTC
Temperature: 33.3°C (92°F)
Dewpoint: 24.4°C (76°F) [RH = 60%]
Pressure (altimeter): 30.07 inches Hg (1018.4 mb)
[Sea-level pressure: 1018.1 mb]
Winds: from the SSW (200 degrees) at 8 MPH (7 knots; 3.6 m/s)
Visibility: 10 or more miles (16+ km)
Ceiling: at least 12,000 feet AGL
Clouds: few clouds at 3500 feet AGL
scattered clouds at 4900 feet AGL
scattered clouds at 6000 feet AGL
Present Weather: no significant weather observed at this time
KFPR 231553Z 20007KT 10SM FEW035 SCT049 SCT060 33/24 A3007 RMK AO2 LTG DSNT SW SLP181 T03330244

Conditions at: KFPR observed 23 July 2017  14:53 UTC
Temperature: 31.7°C (89°F)
Dewpoint: 25.6°C (78°F) [RH = 70%]
Pressure (altimeter): 30.06 inches Hg (1018.0 mb)
[Sea-level pressure: 1017.9 mb]
Winds: from the SSW (210 degrees) at 7 MPH (6 knots; 3.1 m/s)
Visibility: 10 or more miles (16+ km)
Ceiling: at least 12,000 feet AGL
Clouds: sky clear below 12,000 feet AGL
Present Weather: no significant weather observed at this time
KFPR 231453Z 21006KT 10SM CLR 32/26 A3006 RMK AO2 LTG DSNT NE SLP179 T03170256 51004

Conditions at: KFPR observed 23 July 2017  13:53 UTC
Temperature: 28.9°C (84°F)
Dewpoint: 25.6°C (78°F) [RH = 82%]
Pressure (altimeter): 30.06 inches Hg (1018.0 mb)
[Sea-level pressure: 1017.9 mb]
Winds: variable direction winds at 5 MPH (4 knots; 2.1 m/s)
Visibility: 10 or more miles (16+ km)
Ceiling: at least 12,000 feet AGL
Clouds: sky clear below 12,000 feet AGL
Present Weather: no significant weather observed at this time
KFPR 231353Z VRB04KT 10SM CLR 29/26 A3006 RMK AO2 LTG DSNT E SLP179 T02890256

Conditions at: KFPR observed 23 July 2017  12:53 UTC
Temperature: 26.7°C (80°F)
Dewpoint: 25.0°C (77°F) [RH = 90%]
Pressure (altimeter): 30.06 inches Hg (1018.0 mb)
[Sea-level pressure: 1017.7 mb]
Winds: calm
Visibility: 10 or more miles (16+ km)
Ceiling: at least 12,000 feet AGL
Clouds: sky clear below 12,000 feet AGL
Present Weather: no significant weather observed at this time
KFPR 231253Z 00000KT 10SM CLR 27/25 A3006 RMK AO2 LTG DSNT SE SLP177 T02670250

Conditions at: KFPR observed 23 July 2017  11:53 UTC
Temperature: 24.4°C (76°F)
Dewpoint: 23.9°C (75°F) [RH = 97%]
Pressure (altimeter): 30.05 inches Hg (1017.7 mb)
[Sea-level pressure: 1017.6 mb]
Winds: calm
Visibility: 10 or more miles (16+ km)
Ceiling: at least 12,000 feet AGL
Clouds: sky clear below 12,000 feet AGL
Present Weather: no significant weather observed at this time
KFPR 231153Z 00000KT 10SM CLR 24/24 A3005 RMK AO2 SLP176 T02440239 10244 20228 51011

Conditions at: KFPR observed 23 July 2017  10:53 UTC
Temperature: 23.3°C (74°F)
Dewpoint: 22.8°C (73°F) [RH = 97%]
Pressure (altimeter): 30.04 inches Hg (1017.4 mb)
[Sea-level pressure: 1017.1 mb]
Winds: calm
Visibility: 10 or more miles (16+ km)
Ceiling: at least 12,000 feet AGL
Clouds: sky clear below 12,000 feet AGL
Present Weather: automated observation with no human augmentation;
there may or may not be significant weather present at this time
KFPR 231053Z AUTO 00000KT 10SM CLR 23/23 A3004 RMK AO2 SLP171 T02330228

Conditions at: KFPR observed 23 July 2017  09:53 UTC
Temperature: 23.3°C (74°F)
Dewpoint: 22.2°C (72°F) [RH = 94%]
Pressure (altimeter): 30.04 inches Hg (1017.4 mb)
[Sea-level pressure: 1017.0 mb]
Winds: calm
Visibility: 10 or more miles (16+ km)
Ceiling: at least 12,000 feet AGL
Clouds: sky clear below 12,000 feet AGL
Present Weather: automated observation with no human augmentation;
there may or may not be significant weather present at this time
KFPR 230953Z AUTO 00000KT 10SM CLR 23/22 A3004 RMK AO2 SLP170 T02330222

Conditions at: KFPR observed 23 July 2017  08:53 UTC
Temperature: 23.9°C (75°F)
Dewpoint: 22.8°C (73°F) [RH = 94%]
Pressure (altimeter): 30.02 inches Hg (1016.7 mb)
[Sea-level pressure: 1016.5 mb]
Winds: calm
Visibility: 10 or more miles (16+ km)
Ceiling: at least 12,000 feet AGL
Clouds: sky clear below 12,000 feet AGL
Present Weather: no significant weather observed at this time
KFPR 230853Z 00000KT 10SM CLR 24/23 A3002 RMK AO2 LTG DSNT E SLP165 T02390228 58012

Conditions at: KFPR observed 23 July 2017  07:53 UTC
Temperature: 23.9°C (75°F)
Dewpoint: 22.8°C (73°F) [RH = 94%]
Pressure (altimeter): 30.03 inches Hg (1017.0 mb)
[Sea-level pressure: 1016.8 mb]
Winds: calm
Visibility: 10 or more miles (16+ km)
Ceiling: at least 12,000 feet AGL
Clouds: sky clear below 12,000 feet AGL
Present Weather: no significant weather observed at this time
KFPR 230753Z 00000KT 10SM CLR 24/23 A3003 RMK AO2 LTG DSNT E AND SE SLP168 T02390228

Conditions at: KFPR observed 23 July 2017  06:53 UTC
Temperature: 24.4°C (76°F)
Dewpoint: 22.8°C (73°F) [RH = 91%]
Pressure (altimeter): 30.05 inches Hg (1017.7 mb)
[Sea-level pressure: 1017.4 mb]
Winds: calm
Visibility: 10 or more miles (16+ km)
Ceiling: at least 12,000 feet AGL
Clouds: sky clear below 12,000 feet AGL
Present Weather: no significant weather observed at this time
KFPR 230653Z 00000KT 10SM CLR 24/23 A3005 RMK AO2 LTG DSNT E AND SE SLP174 T02440228

Conditions at: KFPR observed 23 July 2017  05:53 UTC
Temperature: 24.4°C (76°F)
Dewpoint: 22.8°C (73°F) [RH = 91%]
Pressure (altimeter): 30.06 inches Hg (1018.0 mb)
[Sea-level pressure: 1017.7 mb]
Winds: calm
Visibility: 10 or more miles (16+ km)
Ceiling: at least 12,000 feet AGL
Clouds: sky clear below 12,000 feet AGL
Present Weather: no significant weather observed at this time
KFPR 230553Z 00000KT 10SM CLR 24/23 A3006 RMK AO2 SLP177 T02440228 10267 20244 58001

Conditions at: KFPR observed 23 July 2017  04:53 UTC
Temperature: 24.4°C (76°F)
Dewpoint: 23.3°C (74°F) [RH = 94%]
Pressure (altimeter): 30.07 inches Hg (1018.4 mb)
[Sea-level pressure: 1018.1 mb]
Winds: calm
Visibility: 10 or more miles (16+ km)
Ceiling: at least 12,000 feet AGL
Clouds: sky clear below 12,000 feet AGL
Present Weather: no significant weather observed at this time
KFPR 230453Z 00000KT 10SM CLR 24/23 A3007 RMK AO2 SLP181 T02440233 403390228

Conditions at: KFPR observed 23 July 2017  03:53 UTC
Temperature: 24.4°C (76°F)
Dewpoint: 22.2°C (72°F) [RH = 88%]
Pressure (altimeter): 30.06 inches Hg (1018.0 mb)
[Sea-level pressure: 1017.9 mb]
Winds: from the WNW (300 degrees) at 6 MPH (5 knots; 2.6 m/s)
Visibility: 10 or more miles (16+ km)
Ceiling: at least 12,000 feet AGL
Clouds: sky clear below 12,000 feet AGL
Present Weather: no significant weather observed at this time
KFPR 230353Z 30005KT 10SM CLR 24/22 A3006 RMK AO2 SLP179 T02440222

Conditions at: KFPR observed 23 July 2017  02:53 UTC
Temperature: 24.4°C (76°F)
Dewpoint: 22.8°C (73°F) [RH = 91%]
Pressure (altimeter): 30.06 inches Hg (1018.0 mb)
[Sea-level pressure: 1017.8 mb]
Winds: calm
Visibility: 10 or more miles (16+ km)
Ceiling: at least 12,000 feet AGL
Clouds: sky clear below 12,000 feet AGL
Present Weather: no significant weather observed at this time
KFPR 230253Z 00000KT 10SM CLR 24/23 A3006 RMK AO2 SLP178 T02440228 55000

Conditions at: KFPR observed 23 July 2017  01:53 UTC
Temperature: 25.0°C (77°F)
Dewpoint: 22.8°C (73°F) [RH = 88%]
Pressure (altimeter): 30.06 inches Hg (1018.0 mb)
[Sea-level pressure: 1017.7 mb]
Winds: from the SSE (150 degrees) at 3 MPH (3 knots; 1.6 m/s)
Visibility: 10 or more miles (16+ km)
Ceiling: at least 12,000 feet AGL
Clouds: sky clear below 12,000 feet AGL
Present Weather: no significant weather observed at this time
KFPR 230153Z 15003KT 10SM CLR 25/23 A3006 RMK AO2 SLP177 T02500228

Conditions at: KFPR observed 23 July 2017  00:53 UTC
Temperature: 25.0°C (77°F)
Dewpoint: 23.3°C (74°F) [RH = 90%]
Pressure (altimeter): 30.06 inches Hg (1018.0 mb)
[Sea-level pressure: 1017.9 mb]
Winds: calm
Visibility: 10 or more miles (16+ km)
Ceiling: at least 12,000 feet AGL
Clouds: sky clear below 12,000 feet AGL
Present Weather: no significant weather observed at this time
KFPR 230053Z 00000KT 10SM CLR 25/23 A3006 RMK AO2 SLP179 T02500233

Conditions at: KFPR observed 22 July 2017  23:53 UTC
Temperature: 26.7°C (80°F)
Dewpoint: 21.7°C (71°F) [RH = 74%]
Pressure (altimeter): 30.06 inches Hg (1018.0 mb)
[Sea-level pressure: 1017.8 mb]
Winds: calm
Visibility: 10 or more miles (16+ km)
Ceiling: at least 12,000 feet AGL
Clouds: few clouds at 4400 feet AGL
Present Weather: no significant weather observed at this time
KFPR 222353Z 00000KT 10SM FEW044 27/22 A3006 RMK AO2 SLP178 T02670217 10333 20256 56008

Conditions at: KFPR observed 22 July 2017  22:53 UTC
Temperature: 26.1°C (79°F)
Dewpoint: 22.2°C (72°F) [RH = 79%]
Pressure (altimeter): 30.07 inches Hg (1018.4 mb)
[Sea-level pressure: 1018.3 mb]
Winds: calm
Visibility: 10 or more miles (16+ km)
Ceiling: at least 12,000 feet AGL
Clouds: few clouds at 3900 feet AGL
Present Weather: no significant weather observed at this time
KFPR 222253Z 00000KT 10SM FEW039 26/22 A3007 RMK AO2 SLP183 T02610222

Conditions at: KFPR observed 22 July 2017  22:01 UTC
Temperature: 25.6°C (78°F)
Dewpoint: 22.8°C (73°F) [RH = 85%]
Pressure (altimeter): 30.06 inches Hg (1018.0 mb)
Winds: from the NNW (340 degrees) at 6 MPH (5 knots; 2.6 m/s)
Visibility: 10 or more miles (16+ km)
Ceiling: at least 12,000 feet AGL
Clouds: sky clear below 12,000 feet AGL
Present Weather: no significant weather observed at this time
KFPR 222201Z 34005KT 10SM CLR 26/23 A3006 RMK AO2 T02560228

Conditions at: KFPR observed 22 July 2017  21:53 UTC
Temperature: 25.6°C (78°F)
Dewpoint: 22.8°C (73°F) [RH = 85%]
Pressure (altimeter): 30.07 inches Hg (1018.4 mb)
[Sea-level pressure: 1018.1 mb]
Winds: from the N (350 degrees) at 3 MPH (3 knots; 1.6 m/s)
Visibility: 10 or more miles (16+ km)
Ceiling: at least 12,000 feet AGL
Clouds: few clouds at 4700 feet AGL
Present Weather: VCTS  (thunderstorm in vicinity)
KFPR 222153Z 35003KT 10SM VCTS FEW047 26/23 A3007 RMK AO2 SLP181 T02560228

Conditions at: KFPR observed 22 July 2017  21:20 UTC
Temperature: 26.7°C (80°F)
Dewpoint: 23.3°C (74°F) [RH = 82%]
Pressure (altimeter): 30.08 inches Hg (1018.7 mb)
Winds: from the N (350 degrees) at 6 MPH (5 knots; 2.6 m/s)
Visibility: 10 or more miles (16+ km)
Ceiling: at least 12,000 feet AGL
Clouds: few clouds at 4700 feet AGL
Present Weather: VCTS  (thunderstorm in vicinity)
KFPR 222120Z 35005KT 10SM VCTS FEW047 27/23 A3008 RMK AO2 LTG DSNT ALQDS T02670233

Conditions at: KFPR observed 22 July 2017  21:10 UTC
Temperature: 26.7°C (80°F)
Dewpoint: 23.3°C (74°F) [RH = 82%]
Pressure (altimeter): 30.08 inches Hg (1018.7 mb)
Winds: from the NNW (340 degrees) at 6 MPH (5 knots; 2.6 m/s)
Visibility: 10 or more miles (16+ km)
Ceiling: at least 12,000 feet AGL
Clouds: scattered clouds at 4700 feet AGL
Present Weather: no significant weather observed at this time
KFPR 222110Z 34005KT 10SM SCT047 27/23 A3008 RMK AO2 LTG DSNT ALQDS T02670233

Conditions at: KFPR observed 22 July 2017  20:53 UTC
Temperature: 26.7°C (80°F)
Dewpoint: 22.8°C (73°F) [RH = 79%]
Pressure (altimeter): 30.08 inches Hg (1018.7 mb)
[Sea-level pressure: 1018.6 mb]
Winds: from the NNW (340 degrees) at 5 MPH (4 knots; 2.1 m/s)
Visibility: 10 or more miles (16+ km)
Ceiling: at least 12,000 feet AGL
Clouds: scattered clouds at 4700 feet AGL
Present Weather: VCTS  (thunderstorm in vicinity)
KFPR 222053Z 34004KT 10SM VCTS SCT047 27/23 A3008 RMK AO2 LTG DSNT N AND S AND NW SLP186 T02670228 53001

Conditions at: KFPR observed 22 July 2017  20:04 UTC
Temperature: 31.1°C (88°F)
Dewpoint: 23.9°C (75°F) [RH = 66%]
Pressure (altimeter): 30.03 inches Hg (1017.0 mb)
Winds: from the SE (140 degrees) at 13 MPH (11 knots; 5.7 m/s)
Visibility: 10 or more miles (16+ km)
Ceiling: 7500 feet AGL
Clouds: scattered clouds at 4800 feet AGL
scattered clouds at 6000 feet AGL
broken clouds at 7500 feet AGL
Present Weather: VCTS  (thunderstorm in vicinity)
KFPR 222004Z 14011KT 10SM VCTS SCT048 SCT060 BKN075 31/24 A3003 RMK AO2 LTG DSNT N AND SE AND NW T03110239

Conditions at: KFPR observed 22 July 2017  19:53 UTC
Temperature: 32.2°C (90°F)
Dewpoint: 23.9°C (75°F) [RH = 62%]
Pressure (altimeter): 30.03 inches Hg (1017.0 mb)
[Sea-level pressure: 1016.9 mb]
Winds: from the SE (140 degrees) at 12 MPH (10 knots; 5.2 m/s)
Visibility: 10 or more miles (16+ km)
Ceiling: at least 12,000 feet AGL
Clouds: few clouds at 4900 feet AGL
scattered clouds at 7000 feet AGL
Present Weather: no significant weather observed at this time
KFPR 221953Z 14010KT 10SM FEW049 SCT070 32/24 A3003 RMK AO2 LTG DSNT W AND NW SLP169 T03220239

Conditions at: KFPR observed 22 July 2017  18:53 UTC
Temperature: 31.7°C (89°F)
Dewpoint: 23.9°C (75°F) [RH = 63%]
Pressure (altimeter): 30.07 inches Hg (1018.4 mb)
[Sea-level pressure: 1018.1 mb]
Winds: from the SE (130 degrees) at 13 MPH (11 knots; 5.7 m/s)
Visibility: 10 or more miles (16+ km)
Ceiling: at least 12,000 feet AGL
Clouds: few clouds at 3900 feet AGL
Present Weather: no significant weather observed at this time
KFPR 221853Z 13011KT 10SM FEW039 32/24 A3007 RMK AO2 LTG DSNT N SLP181 T03170239

Conditions at: KFPR observed 22 July 2017  17:53 UTC
Temperature: 32.2°C (90°F)
Dewpoint: 25.0°C (77°F) [RH = 66%]
Pressure (altimeter): 30.08 inches Hg (1018.7 mb)
[Sea-level pressure: 1018.5 mb]
Winds: from the SE (130 degrees) at 13 MPH (11 knots; 5.7 m/s)
Visibility: 10 or more miles (16+ km)
Ceiling: at least 12,000 feet AGL
Clouds: few clouds at 2900 feet AGL
few clouds at 3500 feet AGL
scattered clouds at 4300 feet AGL
Present Weather: no significant weather observed at this time
KFPR 221753Z 13011KT 10SM FEW029 FEW035 SCT043 32/25 A3008 RMK AO2 SLP185 T03220250 10339 20250 58011

Conditions at: KFPR observed 22 July 2017  16:53 UTC
Temperature: 33.3°C (92°F)
Dewpoint: 24.4°C (76°F) [RH = 60%]
Pressure (altimeter): 30.09 inches Hg (1019.0 mb)
[Sea-level pressure: 1018.8 mb]
Winds: from the SSW (200 degrees) at 7 MPH (6 knots; 3.1 m/s)
Visibility: 10 or more miles (16+ km)
Ceiling: at least 12,000 feet AGL
Clouds: few clouds at 3300 feet AGL
Present Weather: no significant weather observed at this time
KFPR 221653Z 20006KT 10SM FEW033 33/24 A3009 RMK AO2 SLP188 T03330244

Conditions at: KFPR observed 22 July 2017  15:53 UTC
Temperature: 31.1°C (88°F)
Dewpoint: 23.9°C (75°F) [RH = 66%]
Pressure (altimeter): 30.11 inches Hg (1019.7 mb)
[Sea-level pressure: 1019.6 mb]
Winds: from the S (190 degrees) at 5 MPH (4 knots; 2.1 m/s)
Visibility: 10 or more miles (16+ km)
Ceiling: at least 12,000 feet AGL
Clouds: sky clear below 12,000 feet AGL
Present Weather: no significant weather observed at this time
KFPR 221553Z 19004KT 10SM CLR 31/24 A3011 RMK AO2 SLP196 T03110239

Conditions at: KFPR observed 22 July 2017  14:53 UTC
Temperature: 31.1°C (88°F)
Dewpoint: 24.4°C (76°F) [RH = 68%]
Pressure (altimeter): 30.11 inches Hg (1019.7 mb)
[Sea-level pressure: 1019.6 mb]
Winds: from the S (180 degrees) at 6 MPH (5 knots; 2.6 m/s)
Visibility: 10 or more miles (16+ km)
Ceiling: at least 12,000 feet AGL
Clouds: sky clear below 12,000 feet AGL
Present Weather: no significant weather observed at this time
KFPR 221453Z 18005KT 10SM CLR 31/24 A3011 RMK AO2 SLP196 T03110244 51008

Conditions at: KFPR observed 22 July 2017  13:53 UTC
Temperature: 30.0°C (86°F)
Dewpoint: 24.4°C (76°F) [RH = 72%]
Pressure (altimeter): 30.11 inches Hg (1019.7 mb)
[Sea-level pressure: 1019.5 mb]
Winds: from the S (170 degrees) at 3 MPH (3 knots; 1.6 m/s)
Visibility: 10 or more miles (16+ km)
Ceiling: at least 12,000 feet AGL
Clouds: scattered clouds at 2800 feet AGL
Present Weather: no significant weather observed at this time
KFPR 221353Z 17003KT 10SM SCT028 30/24 A3011 RMK AO2 SLP195 T03000244

Conditions at: KFPR observed 22 July 2017  12:53 UTC
Temperature: 26.1°C (79°F)
Dewpoint: 23.9°C (75°F) [RH = 88%]
Pressure (altimeter): 30.10 inches Hg (1019.4 mb)
[Sea-level pressure: 1019.1 mb]
Winds: from the WSW (250 degrees) at 3 MPH (3 knots; 1.6 m/s)
Visibility: 10 or more miles (16+ km)
Ceiling: at least 12,000 feet AGL
Clouds: sky clear below 12,000 feet AGL
Present Weather: no significant weather observed at this time
KFPR 221253Z 25003KT 10SM CLR 26/24 A3010 RMK AO2 SLP191 T02610239

Conditions at: KFPR observed 22 July 2017  11:53 UTC
Temperature: 25.6°C (78°F)
Dewpoint: 24.4°C (76°F) [RH = 93%]
Pressure (altimeter): 30.09 inches Hg (1019.0 mb)
[Sea-level pressure: 1018.8 mb]
Winds: from the SW (230 degrees) at 3 MPH (3 knots; 1.6 m/s)
Visibility: 10 or more miles (16+ km)
Ceiling: at least 12,000 feet AGL
Clouds: sky clear below 12,000 feet AGL
Present Weather: no significant weather observed at this time
KFPR 221153Z 23003KT 10SM CLR 26/24 A3009 RMK AO2 SLP188 70001 T02560244 10256 20228 53016

Conditions at: KFPR observed 22 July 2017  10:53 UTC
Temperature: 23.9°C (75°F)
Dewpoint: 23.3°C (74°F) [RH = 96%]
Pressure (altimeter): 30.07 inches Hg (1018.4 mb)
[Sea-level pressure: 1018.1 mb]
Winds: from the SSE (160 degrees) at 3 MPH (3 knots; 1.6 m/s)
Visibility: 10 or more miles (16+ km)
Ceiling: at least 12,000 feet AGL
Clouds: sky clear below 12,000 feet AGL
Present Weather: automated observation with no human augmentation;
there may or may not be significant weather present at this time
KFPR 221053Z AUTO 16003KT 10SM CLR 24/23 A3007 RMK AO2 SLP181 T02390233

Conditions at: KFPR observed 22 July 2017  09:53 UTC
Temperature: 23.3°C (74°F)
Dewpoint: 22.2°C (72°F) [RH = 94%]
Pressure (altimeter): 30.05 inches Hg (1017.7 mb)
[Sea-level pressure: 1017.5 mb]
Winds: calm
Visibility: 10 or more miles (16+ km)
Ceiling: at least 12,000 feet AGL
Clouds: sky clear below 12,000 feet AGL
Present Weather: automated observation with no human augmentation;
there may or may not be significant weather present at this time
KFPR 220953Z AUTO 00000KT 10SM CLR 23/22 A3005 RMK AO2 SLP175 T02330222